Hlavní strana
METAR-TAF:

METAR-TAF

Letiště :

Norrköping, Švédsko

zeměpisná šířka: 58-35N, zeměpisná délka: 016-09E, výška: 34 m

Aktuální stav počasí

Zpráva byla vytvořena před 27 minutami, v 03:50 UTC
Východojihovýchodní vítr 6 kt, proměnlivý mezi východním a jižním
Teplota 9°C
Vlhkost vzduchu 93%
Tlak 1000 hPa
Viditelnost: 5000 m
slabý déšť

METAR: ESSP 140350Z AUTO 11006KT 090V170 5000 -RA OVC006/// 09/08 Q1000

Čas: 06:17 (04:17 UTC)

Předpověď počasí

Zpráva byla vytvořena před 13 hodinami a 47 minutami, v 14:30 UTC
Předpověď platná od 13 v 15 UTC do 13 v 17 UTC
Jihozápadní vítr 8 kt
Viditelnost 10 km a více
Oblačno až skoro zataženo ve výšce 3000 ft

TAF: ESSP 131430Z 1315/1317 23008KT 9999 BKN030

Stav a předpovědi počasí z více než 4 000 letišť (zprávy METAR a TAF).

Červené a žluté tečky na mapě představují dostupné meteorologické stanice.

Když kurzor umístíte na tečku, zobrazí se název stanice.

Pak kliknutím zobrazíte stav a předpověď počasí.

Chcete-li změnit mapu, kliknutím na zelené tlačítko se znaménkem +mapu přiblížíte, kliknutím na zelené tlačítko se znaménkem – mapu oddálíte a kliknutím na zelené šipky přejdete na sousední mapy.


METAR-TAF: